Time;durP1;ratioP1;P1;durP2;ratioP2;P2;SDS_P1;SDS_P2;PMS_P1;PMS_P2;Temp;Humidity;BMP_temperature;BMP_pressure;BME280_temperature;BME280_humidity;BME280_pressure;Samples;Min_cycle;Max_cycle;Signal;HPM_P1;HPM_P2
2023/03/14 00:02:08;;;;;;;8.95;2.60;;;;;;;12.84;70.94;98737.03;3611108;39;20051;-66
2023/03/14 00:04:34;;;;;;;6.80;2.05;;;;;;;12.85;69.77;98753.06;3613768;39;20123;-65
2023/03/14 00:07:00;;;;;;;6.90;1.90;;;;;;;12.82;66.94;98734.53;3615236;39;20054;-65
2023/03/14 00:09:26;;;;;;;5.85;1.60;;;;;;;12.82;66.58;98729.13;3609729;39;20081;-65
2023/03/14 00:11:53;;;;;;;6.47;1.58;;;;;;;12.69;65.86;98726.03;3606629;39;20054;-66
2023/03/14 00:14:19;;;;;;;5.60;1.63;;;;;;;12.75;64.77;98736.19;3605603;39;20106;-67
2023/03/14 00:16:48;;;;;;;7.40;1.65;;;;;;;12.72;64.41;98729.25;3606586;39;20054;-70
2023/03/14 00:19:14;;;;;;;7.00;1.50;;;;;;;12.71;64.05;98726.69;3610690;39;20310;-70
2023/03/14 00:21:39;;;;;;;7.30;1.50;;;;;;;12.43;63.53;98710.72;3611823;39;20059;-71
2023/03/14 00:24:05;;;;;;;6.05;1.50;;;;;;;12.65;63.57;98762.38;3610767;39;20452;-72
2023/03/14 00:26:31;;;;;;;6.53;1.60;;;;;;;11.87;63.29;98630.38;3607905;39;20070;-73
2023/03/14 00:28:57;;;;;;;6.18;1.75;;;;;;;12.53;63.48;98753.72;3603858;39;20372;-73
2023/03/14 00:31:23;;;;;;;7.72;1.30;;;;;;;12.30;63.79;98724.59;3607271;39;20055;-73
2023/03/14 00:33:53;;;;;;;7.90;1.90;;;;;;;12.49;63.53;98765.81;3613636;39;20393;-73
2023/03/14 00:36:23;;;;;;;6.82;1.40;;;;;;;12.43;63.61;98774.53;3610607;39;20047;-72
2023/03/14 00:38:51;;;;;;;5.47;1.52;;;;;;;12.42;63.15;98762.06;3610016;39;20046;-72
2023/03/14 00:41:22;;;;;;;7.15;1.63;;;;;;;12.39;63.46;98751.59;3613427;39;20054;-71
2023/03/14 00:43:49;;;;;;;8.30;1.80;;;;;;;12.41;63.55;98750.44;3595710;39;20057;-72
2023/03/14 00:46:16;;;;;;;8.48;1.52;;;;;;;12.50;63.69;98764.81;3606594;39;20057;-71
2023/03/14 00:48:41;;;;;;;4.40;1.40;;;;;;;12.49;63.78;98774.72;3609708;39;20343;-71
2023/03/14 00:51:09;;;;;;;7.13;1.30;;;;;;;12.48;63.25;98783.00;3610477;39;20043;-71
2023/03/14 00:53:39;;;;;;;3.20;1.58;;;;;;;12.48;63.89;98775.75;3609789;39;20040;-70
2023/03/14 00:56:10;;;;;;;5.38;1.52;;;;;;;12.48;63.32;98772.22;3610718;39;20463;-70
2023/03/14 00:58:36;;;;;;;4.95;1.30;;;;;;;12.48;63.64;98767.66;3607966;39;20528;-70
2023/03/14 01:01:18;;;;;;;9.23;1.60;;;;;;;12.48;63.53;98761.44;3604747;39;20240;-70
2023/03/14 01:03:45;;;;;;;4.43;1.27;;;;;;;12.49;63.62;98761.25;3597021;39;20058;-70
2023/03/14 01:06:15;;;;;;;6.20;1.40;;;;;;;12.49;63.07;98757.72;3607809;39;20057;-70
2023/03/14 01:08:41;;;;;;;8.23;1.80;;;;;;;12.47;63.50;98757.06;3601719;39;20329;-70
2023/03/14 01:11:15;;;;;;;6.47;1.92;;;;;;;12.46;63.39;98755.34;3609422;39;20328;-70
2023/03/14 01:13:41;;;;;;;8.30;1.52;;;;;;;12.38;63.32;98744.53;3613625;39;20046;-70
2023/03/14 01:16:10;;;;;;;6.13;1.77;;;;;;;12.46;63.63;98758.91;3607043;39;20538;-70
2023/03/14 01:18:38;;;;;;;8.00;1.65;;;;;;;12.47;62.91;98759.75;3610802;39;20055;-70
2023/03/14 01:21:14;;;;;;;6.78;1.42;;;;;;;12.42;63.27;98748.59;3609290;39;20369;-70
2023/03/14 01:23:42;;;;;;;7.53;1.58;;;;;;;12.42;62.89;98751.28;3601984;39;20094;-69
2023/03/14 01:26:15;;;;;;;4.85;1.35;;;;;;;12.29;62.58;98730.13;3608026;39;20525;-69
2023/03/14 01:28:41;;;;;;;6.75;1.63;;;;;;;12.36;62.53;98736.59;3604360;39;20391;-69
2023/03/14 01:31:10;;;;;;;2.58;1.17;;;;;;;12.41;62.92;98738.81;3611362;39;20061;-69
2023/03/14 01:33:36;;;;;;;3.50;0.90;;;;;;;12.40;62.75;98743.38;3612387;39;20059;-69
2023/03/14 01:36:04;;;;;;;4.05;1.30;;;;;;;12.38;62.52;98733.75;3609917;39;20055;-70
2023/03/14 01:38:33;;;;;;;9.68;1.55;;;;;;;12.35;62.94;98734.06;3610599;39;20066;-69
2023/03/14 01:40:59;;;;;;;5.22;1.33;;;;;;;12.32;62.84;98730.66;3615558;39;20092;-69
2023/03/14 01:43:25;;;;;;;5.88;1.33;;;;;;;12.32;62.86;98727.13;3607098;39;20074;-69
2023/03/14 01:46:25;;;;;;;4.57;1.38;;;;;;;12.31;63.61;98728.97;3608527;39;20302;-69
2023/03/14 01:49:10;;;;;;;3.97;1.25;;;;;;;12.27;63.96;98715.97;3610266;39;20057;-69
2023/03/14 01:52:11;;;;;;;5.20;1.90;;;;;;;12.26;63.61;98720.53;3608786;39;20091;-69
2023/03/14 01:54:47;;;;;;;6.55;1.85;;;;;;;12.12;63.69;98683.41;3590807;39;20051;-69
2023/03/14 01:57:32;;;;;;;5.57;1.83;;;;;;;12.27;64.10;98706.06;3611098;39;20067;-69
2023/03/14 02:00:10;;;;;;;9.65;1.70;;;;;;;12.26;64.07;98717.81;3607128;39;20053;-69
2023/03/14 02:02:35;;;;;;;6.15;1.65;;;;;;;12.28;64.17;98698.81;3607053;39;20056;-69
2023/03/14 02:05:04;;;;;;;7.10;2.47;;;;;;;12.30;64.29;98700.38;3610462;39;20139;-69
2023/03/14 02:07:51;;;;;;;7.70;2.00;;;;;;;12.25;64.57;98699.97;3614443;39;20062;-69
2023/03/14 02:10:21;;;;;;;5.55;2.00;;;;;;;12.26;64.75;98696.28;3608668;39;20054;-69
2023/03/14 02:12:50;;;;;;;9.60;2.08;;;;;;;12.21;64.89;98692.34;3612637;39;20071;-69
2023/03/14 02:15:16;;;;;;;9.90;2.38;;;;;;;12.25;65.08;98699.97;3614192;39;20061;-69
2023/03/14 02:17:45;;;;;;;6.60;2.08;;;;;;;12.26;65.74;98696.28;3609283;39;20576;-69
2023/03/14 02:20:51;;;;;;;9.95;2.42;;;;;;;12.24;65.69;98695.59;3611078;39;20127;-69
2023/03/14 02:23:34;;;;;;;8.07;2.13;;;;;;;12.14;65.57;98681.38;3611254;39;20077;-69
2023/03/14 02:26:19;;;;;;;9.93;2.03;;;;;;;12.19;65.67;98700.59;3598655;39;20046;-69
2023/03/14 02:28:45;;;;;;;6.07;1.77;;;;;;;12.23;65.50;98701.13;3606670;39;20058;-70
2023/03/14 02:31:13;;;;;;;11.35;2.63;;;;;;;12.23;66.22;98688.50;3611212;39;20043;-69
2023/03/14 02:33:39;;;;;;;7.70;2.25;;;;;;;12.17;66.20;98683.75;3609563;39;20473;-69
2023/03/14 02:36:13;;;;;;;7.93;2.70;;;;;;;12.18;65.79;98674.69;3611473;39;20063;-70
2023/03/14 02:39:15;;;;;;;9.48;2.28;;;;;;;12.15;65.74;98676.84;3608363;39;20062;-69
2023/03/14 02:41:42;;;;;;;8.32;2.20;;;;;;;12.10;66.61;98674.63;3614272;39;20057;-69
2023/03/14 02:44:08;;;;;;;9.05;2.15;;;;;;;11.91;66.39;98643.34;3608194;39;20043;-69
2023/03/14 02:46:34;;;;;;;11.85;2.42;;;;;;;12.05;66.63;98675.09;3608093;39;20065;-69
2023/03/14 02:49:10;;;;;;;8.77;2.03;;;;;;;12.04;66.43;98668.00;3611549;39;20051;-69
2023/03/14 02:51:37;;;;;;;8.45;2.08;;;;;;;12.07;66.56;98664.16;3609174;39;20055;-70
2023/03/14 02:54:03;;;;;;;6.68;2.13;;;;;;;12.04;66.73;98659.94;3607206;39;20059;-70
2023/03/14 02:56:29;;;;;;;5.78;1.45;;;;;;;12.08;66.74;98673.91;3610690;39;20061;-69
2023/03/14 02:58:54;;;;;;;9.57;2.20;;;;;;;12.10;66.39;98677.31;3612215;39;20134;-69
2023/03/14 03:01:20;;;;;;;11.38;2.75;;;;;;;12.09;66.37;98683.72;3612294;39;20047;-69
2023/03/14 03:03:45;;;;;;;11.07;2.58;;;;;;;11.95;66.42;98657.34;3607701;39;20050;-70
2023/03/14 03:06:11;;;;;;;7.47;2.03;;;;;;;12.05;66.73;98676.94;3607653;39;20047;-69
2023/03/14 03:08:37;;;;;;;8.15;2.33;;;;;;;12.15;66.52;98679.56;3609113;39;20338;-69
2023/03/14 03:11:04;;;;;;;8.48;2.13;;;;;;;12.15;66.39;98675.00;3610524;39;20128;-69
2023/03/14 03:13:29;;;;;;;10.45;2.92;;;;;;;12.15;66.77;98695.72;3611639;39;20043;-69
2023/03/14 03:15:55;;;;;;;7.28;2.30;;;;;;;12.16;66.68;98692.84;3610537;39;20073;-69
2023/03/14 03:18:21;;;;;;;6.78;2.08;;;;;;;12.14;66.54;98689.44;3607838;39;20371;-69
2023/03/14 03:20:47;;;;;;;7.13;1.60;;;;;;;12.14;66.23;98684.06;3607214;39;20072;-69
2023/03/14 03:23:13;;;;;;;7.35;1.85;;;;;;;12.00;66.54;98652.34;3609848;39;20047;-69
2023/03/14 03:25:39;;;;;;;8.07;1.80;;;;;;;12.11;66.17;98667.38;3608751;39;20270;-69
2023/03/14 03:28:07;;;;;;;8.25;1.48;;;;;;;12.12;66.01;98675.31;3611357;39;20051;-69
2023/03/14 03:30:38;;;;;;;6.85;1.75;;;;;;;12.15;66.48;98672.31;3612740;39;20059;-69
2023/03/14 03:33:03;;;;;;;7.72;2.10;;;;;;;12.13;66.43;98676.16;3614966;39;20128;-70
2023/03/14 03:35:29;;;;;;;10.27;1.70;;;;;;;11.87;66.36;98636.59;3606334;39;20051;-69
2023/03/14 03:37:54;;;;;;;7.78;1.52;;;;;;;12.08;65.79;98673.91;3597920;39;20739;-69
2023/03/14 03:40:20;;;;;;;5.82;1.67;;;;;;;12.10;66.01;98668.38;3612183;39;20050;-69
2023/03/14 03:42:47;;;;;;;5.70;1.50;;;;;;;12.08;66.04;98672.09;3608494;39;20055;-69
2023/03/14 03:45:12;;;;;;;5.03;1.42;;;;;;;12.04;66.63;98667.16;3607612;39;20321;-69
2023/03/14 03:47:38;;;;;;;8.68;2.00;;;;;;;12.05;66.12;98664.34;3611523;39;20059;-69
2023/03/14 03:50:04;;;;;;;6.93;1.67;;;;;;;12.02;65.97;98647.63;3612271;39;20298;-69
2023/03/14 03:52:29;;;;;;;6.32;1.48;;;;;;;12.05;66.04;98652.69;3605835;39;20039;-69
2023/03/14 03:54:55;;;;;;;7.47;2.25;;;;;;;12.08;66.29;98665.84;3609836;39;20053;-69
2023/03/14 03:57:21;;;;;;;8.18;1.90;;;;;;;12.07;66.15;98654.22;3607412;39;20051;-69
2023/03/14 03:59:46;;;;;;;4.40;0.85;;;;;;;12.01;66.76;98657.56;3606705;39;20055;-69
2023/03/14 04:02:12;;;;;;;3.05;1.27;;;;;;;12.01;67.09;98657.56;3608342;39;20097;-69
2023/03/14 04:04:38;;;;;;;6.50;1.42;;;;;;;11.94;67.51;98655.66;3607904;39;20059;-69
2023/03/14 04:07:04;;;;;;;6.85;1.73;;;;;;;11.89;67.46;98653.41;3611660;39;20063;-68
2023/03/14 04:09:30;;;;;;;10.30;1.58;;;;;;;11.56;67.69;98609.22;3608658;39;20047;-68
2023/03/14 04:11:56;;;;;;;7.10;1.50;;;;;;;11.73;67.48;98643.34;3608554;39;20062;-68
2023/03/14 04:14:22;;;;;;;4.50;1.17;;;;;;;11.70;67.50;98648.19;3609737;39;20050;-69
2023/03/14 04:16:48;;;;;;;7.13;1.73;;;;;;;11.67;68.26;98649.38;3609028;39;20058;-68
2023/03/14 04:19:13;;;;;;;4.50;1.70;;;;;;;11.57;68.40;98632.44;3605422;39;20094;-69
2023/03/14 04:21:45;;;;;;;6.43;1.60;;;;;;;11.66;68.34;98661.13;3608859;39;20077;-69
2023/03/14 04:24:11;;;;;;;7.07;1.60;;;;;;;11.65;69.28;98648.66;3612378;39;20126;-68
2023/03/14 04:26:36;;;;;;;5.20;1.45;;;;;;;11.67;69.27;98652.06;3609254;39;20063;-68
2023/03/14 04:29:02;;;;;;;5.38;1.35;;;;;;;11.69;69.83;98646.50;3611132;39;20413;-68
2023/03/14 04:31:28;;;;;;;5.30;1.33;;;;;;;11.67;70.55;98652.06;3610357;39;20097;-68
2023/03/14 04:33:53;;;;;;;5.72;1.27;;;;;;;11.64;70.78;98647.00;3604710;39;20351;-68
2023/03/14 04:36:19;;;;;;;5.40;1.23;;;;;;;11.62;71.75;98641.75;3610331;39;20057;-68
2023/03/14 04:38:45;;;;;;;4.15;1.15;;;;;;;11.62;71.88;98646.28;3611175;39;20409;-68
2023/03/14 04:41:10;;;;;;;3.80;1.25;;;;;;;11.58;72.58;98644.91;3608105;39;20058;-68
2023/03/14 04:43:36;;;;;;;1.70;0.77;;;;;;;11.54;72.69;98644.34;3607893;39;20058;-68
2023/03/14 04:46:02;;;;;;;3.75;1.13;;;;;;;11.54;73.46;98638.13;3604892;39;20098;-68
2023/03/14 04:48:28;;;;;;;5.45;1.08;;;;;;;11.49;74.01;98632.38;3609938;39;20380;-68
2023/03/14 04:50:54;;;;;;;2.33;1.00;;;;;;;11.39;75.65;98636.00;3606633;39;20067;-68
2023/03/14 04:53:20;;;;;;;5.88;1.42;;;;;;;11.34;76.63;98637.44;3609508;39;20053;-68
2023/03/14 04:55:52;;;;;;;4.88;1.48;;;;;;;11.26;76.79;98635.53;3608037;39;20058;-68
2023/03/14 04:58:18;;;;;;;3.00;1.40;;;;;;;11.18;78.71;98638.13;3607754;39;20124;-68
2023/03/14 05:00:45;;;;;;;3.40;1.10;;;;;;;11.11;79.47;98645.13;3605329;39;20051;-68
2023/03/14 05:03:10;;;;;;;5.20;1.25;;;;;;;11.03;80.20;98648.56;3610652;39;20061;-68
2023/03/14 05:05:36;;;;;;;3.30;1.40;;;;;;;11.02;80.78;98644.19;3607804;39;20058;-68
2023/03/14 05:08:01;;;;;;;3.85;1.20;;;;;;;10.95;81.35;98643.09;3609501;39;20159;-69
2023/03/14 05:10:27;;;;;;;5.85;1.75;;;;;;;10.91;81.41;98639.03;3608732;39;20061;-69
2023/03/14 05:12:53;;;;;;;4.40;1.70;;;;;;;10.88;82.51;98637.50;3608276;39;20062;-68
2023/03/14 05:15:18;;;;;;;3.90;1.98;;;;;;;10.21;82.91;98539.25;3594774;39;20062;-68
2023/03/14 05:17:44;;;;;;;4.32;1.75;;;;;;;10.83;82.63;98637.09;3598899;39;20341;-67
2023/03/14 05:20:12;;;;;;;4.22;1.80;;;;;;;10.78;83.81;98628.63;3605608;39;20043;-68
2023/03/14 05:22:39;;;;;;;5.18;2.00;;;;;;;10.78;83.90;98636.69;3609150;39;20380;-68
2023/03/14 05:25:05;;;;;;;3.90;1.92;;;;;;;10.74;84.05;98632.59;3607198;39;21532;-68
2023/03/14 05:27:31;;;;;;;6.22;1.85;;;;;;;10.80;84.32;98632.00;3606502;39;20089;-67
2023/03/14 05:29:57;;;;;;;4.93;1.83;;;;;;;10.78;84.71;98631.31;3604819;39;20405;-67
2023/03/14 05:32:22;;;;;;;6.32;1.90;;;;;;;10.80;84.56;98626.63;3607159;39;20046;-68
2023/03/14 05:34:48;;;;;;;11.82;6.40;;;;;;;10.78;85.10;98619.72;3605007;39;20393;-67
2023/03/14 05:37:14;;;;;;;6.63;2.47;;;;;;;10.77;84.96;98613.50;3607262;39;20050;-67
2023/03/14 05:39:39;;;;;;;5.28;2.05;;;;;;;10.80;84.54;98621.25;3609645;39;20066;-67
2023/03/14 05:42:05;;;;;;;5.15;2.38;;;;;;;10.65;85.02;98588.66;3609130;39;20102;-68
2023/03/14 05:44:30;;;;;;;6.07;2.05;;;;;;;10.83;84.75;98612.06;3609505;39;20047;-68
2023/03/14 05:46:56;;;;;;;5.85;2.03;;;;;;;10.85;85.28;98618.97;3613121;39;20089;-67
2023/03/14 05:49:22;;;;;;;8.15;2.75;;;;;;;10.82;84.81;98615.75;3608431;39;20313;-68
2023/03/14 05:51:47;;;;;;;5.68;2.20;;;;;;;10.81;85.42;98604.13;3611060;39;20067;-68
2023/03/14 05:54:13;;;;;;;5.25;2.25;;;;;;;10.80;86.22;98609.66;3611041;39;20050;-67
2023/03/14 05:56:38;;;;;;;5.25;2.20;;;;;;;10.77;86.25;98616.19;3609169;39;20050;-67
2023/03/14 05:59:04;;;;;;;5.18;2.22;;;;;;;10.74;86.38;98608.44;3609500;39;20437;-67
2023/03/14 06:01:30;;;;;;;7.63;2.72;;;;;;;10.74;86.99;98603.06;3601045;39;20151;-67
2023/03/14 06:03:56;;;;;;;6.32;2.50;;;;;;;10.76;87.08;98595.69;3601785;39;20074;-67
2023/03/14 06:06:21;;;;;;;7.95;3.10;;;;;;;10.77;87.21;98601.91;3611971;39;20047;-69
2023/03/14 06:08:47;;;;;;;5.47;2.35;;;;;;;10.72;87.04;98601.50;3612138;39;20308;-68
2023/03/14 06:11:13;;;;;;;4.80;2.55;;;;;;;10.69;87.06;98600.00;3607003;39;20289;-65
2023/03/14 06:13:38;;;;;;;6.43;2.97;;;;;;;10.56;88.17;98584.22;3609439;39;20122;-66
2023/03/14 06:16:05;;;;;;;4.55;2.83;;;;;;;10.67;88.89;98596.59;3610544;39;20070;-67
2023/03/14 06:18:31;;;;;;;4.40;2.58;;;;;;;10.40;88.57;98555.34;3606580;39;20059;-67
2023/03/14 06:20:57;;;;;;;6.57;3.20;;;;;;;10.60;89.13;98592.81;3609963;39;20047;-68
2023/03/14 06:23:23;;;;;;;5.13;2.95;;;;;;;10.65;88.57;98606.63;3609430;39;20046;-68
2023/03/14 06:25:49;;;;;;;5.68;2.70;;;;;;;10.68;89.25;98598.28;3608402;39;20091;-69
2023/03/14 06:28:14;;;;;;;9.50;3.20;;;;;;;10.67;88.59;98596.59;3611724;39;20055;-70
2023/03/14 06:30:40;;;;;;;5.70;3.13;;;;;;;10.75;88.24;98603.88;3608717;39;20066;-70
2023/03/14 06:33:06;;;;;;;9.20;3.60;;;;;;;10.77;88.24;98609.97;3606542;39;20124;-70
2023/03/14 06:35:31;;;;;;;5.72;2.85;;;;;;;10.78;88.11;98601.75;3605910;39;20078;-70
2023/03/14 06:37:57;;;;;;;4.32;2.80;;;;;;;10.81;88.13;98608.66;3602207;39;20089;-70
2023/03/14 06:40:23;;;;;;;6.63;3.10;;;;;;;10.81;87.74;98614.88;3612756;39;20051;-72
2023/03/14 06:42:48;;;;;;;5.35;2.97;;;;;;;10.84;88.00;98613.75;3607903;39;20097;-71
2023/03/14 06:45:14;;;;;;;5.38;2.83;;;;;;;10.86;88.07;98617.13;3610249;39;20054;-71
2023/03/14 06:47:40;;;;;;;5.80;3.10;;;;;;;10.85;88.36;98618.97;3611389;39;20062;-71
2023/03/14 06:50:08;;;;;;;5.32;3.22;;;;;;;10.80;87.96;98606.97;3608356;39;20053;-71
2023/03/14 06:52:34;;;;;;;5.78;3.05;;;;;;;10.96;88.15;98625.13;3607323;39;20059;-71
2023/03/14 06:54:59;;;;;;;5.57;3.47;;;;;;;10.99;87.61;98625.66;3605586;39;20091;-71
2023/03/14 06:57:25;;;;;;;3.97;3.08;;;;;;;11.03;87.44;98618.16;3608458;39;20063;-71
2023/03/14 06:59:51;;;;;;;6.65;3.55;;;;;;;11.01;87.90;98625.53;3605783;39;20255;-69
2023/03/14 07:02:17;;;;;;;8.35;3.55;;;;;;;10.86;87.42;98596.47;3601536;39;20050;-67
2023/03/14 07:04:42;;;;;;;5.15;3.28;;;;;;;11.01;87.37;98626.38;3606556;39;20456;-67
2023/03/14 07:07:08;;;;;;;7.45;3.40;;;;;;;11.01;88.14;98630.91;3609897;39;20692;-68
2023/03/14 07:09:35;;;;;;;8.98;3.45;;;;;;;10.98;87.90;98626.69;3607414;39;20063;-68
2023/03/14 07:12:03;;;;;;;5.90;3.53;;;;;;;11.03;88.10;98634.28;3608674;39;20054;-69
2023/03/14 07:14:28;;;;;;;7.65;3.80;;;;;;;11.01;88.05;98658.63;3606582;39;20051;-68
2023/03/14 07:16:54;;;;;;;7.82;3.45;;;;;;;11.01;88.46;98641.66;3609042;39;20063;-68
2023/03/14 07:19:19;;;;;;;8.35;3.90;;;;;;;11.02;88.81;98662.16;3609868;39;20081;-68
2023/03/14 07:21:45;;;;;;;5.95;3.63;;;;;;;11.00;88.28;98662.31;3605573;39;20490;-69
2023/03/14 07:24:11;;;;;;;5.03;3.35;;;;;;;10.84;88.45;98640.63;3609725;39;20062;-69
2023/03/14 07:26:36;;;;;;;5.20;3.50;;;;;;;10.99;88.58;98673.22;3604987;39;20054;-68
2023/03/14 07:29:05;;;;;;;4.95;3.78;;;;;;;10.98;89.15;98707.31;3608114;39;20301;-69
2023/03/14 07:31:31;;;;;;;4.88;2.58;;;;;;;10.87;86.98;98745.97;3609143;39;20070;-69
2023/03/14 07:33:56;;;;;;;2.78;2.30;;;;;;;10.65;85.39;98765.16;3610121;39;20112;-68
2023/03/14 07:36:22;;;;;;;1.85;1.30;;;;;;;10.44;83.73;98774.28;3609005;39;20058;-70
2023/03/14 07:38:48;;;;;;;2.03;1.52;;;;;;;10.26;82.97;98786.75;3608169;39;20273;-70
2023/03/14 07:41:14;;;;;;;3.70;1.17;;;;;;;9.76;82.43;98752.81;3618054;39;20050;-70
2023/03/14 07:43:40;;;;;;;1.88;0.93;;;;;;;9.88;82.20;98804.50;3607322;39;20051;-71
2023/03/14 07:46:07;;;;;;;1.13;0.98;;;;;;;9.39;81.67;98760.69;3606306;39;20436;-70
2023/03/14 07:48:32;;;;;;;0.93;0.40;;;;;;;9.57;82.05;98829.75;3599636;39;20059;-68
2023/03/14 07:50:58;;;;;;;2.40;0.52;;;;;;;9.38;81.74;98825.16;3612009;39;20083;-68
2023/03/14 07:53:25;;;;;;;1.70;0.65;;;;;;;9.37;82.95;98843.09;3613517;39;20062;-68
2023/03/14 07:55:53;;;;;;;2.22;0.80;;;;;;;9.11;83.00;98815.06;3610464;39;20063;-69
2023/03/14 07:58:21;;;;;;;1.13;1.00;;;;;;;9.25;83.06;98857.59;3607047;39;20051;-70
2023/03/14 08:00:48;;;;;;;1.67;1.48;;;;;;;9.23;83.71;98862.25;3606895;39;20052;-70
2023/03/14 08:03:13;;;;;;;2.17;1.60;;;;;;;9.16;84.44;98878.00;3608193;39;20303;-70
2023/03/14 08:05:39;;;;;;;2.45;1.83;;;;;;;9.10;84.53;98866.97;3604906;39;20062;-71
2023/03/14 08:08:05;;;;;;;2.47;2.00;;;;;;;9.12;84.38;98886.44;3605186;39;20103;-71
2023/03/14 08:10:31;;;;;;;2.72;2.28;;;;;;;9.18;85.16;98896.63;3604715;39;20051;-71
2023/03/14 08:13:00;;;;;;;3.33;1.85;;;;;;;9.16;84.28;98902.13;3596412;39;20051;-71
2023/03/14 08:15:29;;;;;;;1.75;1.58;;;;;;;8.48;84.93;98813.34;3605061;39;20051;-71
2023/03/14 08:17:55;;;;;;;3.28;1.65;;;;;;;9.15;84.36;98924.56;3606630;39;20047;-71
2023/03/14 08:20:24;;;;;;;1.65;1.15;;;;;;;9.16;83.91;98925.41;3607113;39;20052;-71
2023/03/14 08:22:50;;;;;;;2.22;1.20;;;;;;;9.17;83.32;98951.25;3603671;39;20062;-71
2023/03/14 08:25:16;;;;;;;2.95;0.95;;;;;;;9.15;83.09;98966.59;3603367;39;20054;-71
2023/03/14 08:27:43;;;;;;;2.45;1.23;;;;;;;8.80;83.08;98898.13;3609692;39;20047;-70
2023/03/14 08:30:14;;;;;;;2.67;0.90;;;;;;;9.10;82.28;98976.84;3603874;39;20127;-71
2023/03/14 08:32:40;;;;;;;2.55;0.80;;;;;;;9.11;82.20;98976.75;3603488;39;20060;-70
2023/03/14 08:35:07;;;;;;;2.05;0.70;;;;;;;9.06;82.48;98984.31;3603218;39;20063;-70
2023/03/14 08:37:35;;;;;;;2.55;1.10;;;;;;;9.15;82.44;98993.41;3602709;39;20370;-70
2023/03/14 08:40:06;;;;;;;5.68;1.15;;;;;;;9.20;81.71;99007.28;3606226;39;20044;-70
2023/03/14 08:42:33;;;;;;;3.08;1.40;;;;;;;9.21;81.65;99017.84;3605692;39;20058;-70
2023/03/14 08:44:59;;;;;;;4.07;1.30;;;;;;;9.19;82.11;99018.97;3606159;39;20389;-70
2023/03/14 08:47:25;;;;;;;4.25;1.63;;;;;;;9.25;81.71;99026.47;3604905;39;20073;-70
2023/03/14 08:49:50;;;;;;;4.70;1.65;;;;;;;9.24;82.15;99041.72;3607048;39;20124;-70
2023/03/14 08:52:16;;;;;;;4.30;1.50;;;;;;;9.20;81.89;99045.66;3603283;39;20298;-70
2023/03/14 08:54:44;;;;;;;5.40;1.42;;;;;;;9.22;81.13;99054.41;3608741;39;20057;-70
2023/03/14 08:57:10;;;;;;;3.90;1.20;;;;;;;9.23;80.10;99060.63;3603361;39;20055;-70
2023/03/14 08:59:35;;;;;;;3.30;1.50;;;;;;;9.21;80.47;99066.09;3604117;39;20054;-70
2023/03/14 09:02:03;;;;;;;1.85;1.73;;;;;;;9.03;80.95;99039.00;3606034;39;20371;-70
2023/03/14 09:04:30;;;;;;;5.63;2.38;;;;;;;9.27;81.35;99088.88;3608753;39;20051;-70
2023/03/14 09:06:57;;;;;;;6.15;2.35;;;;;;;9.32;81.47;99094.69;3610016;39;20057;-70
2023/03/14 09:09:26;;;;;;;4.20;1.50;;;;;;;9.29;80.86;99087.78;3608469;39;20047;-70
2023/03/14 09:11:52;;;;;;;3.72;1.70;;;;;;;9.25;80.66;99094.34;3606032;39;20067;-70
2023/03/14 09:14:17;;;;;;;2.28;1.70;;;;;;;9.40;79.77;99116.34;3607942;39;20055;-70
2023/03/14 09:16:43;;;;;;;3.28;1.65;;;;;;;9.42;80.23;99125.13;3605291;39;20331;-70
2023/03/14 09:19:09;;;;;;;5.82;1.60;;;;;;;9.47;80.65;99133.63;3606182;39;20293;-69
2023/03/14 09:21:34;;;;;;;4.70;1.75;;;;;;;9.57;80.51;99144.41;3604116;39;20046;-70
2023/03/14 09:24:00;;;;;;;3.85;1.60;;;;;;;9.70;80.62;99146.91;3606056;39;20051;-70
2023/03/14 09:26:25;;;;;;;4.03;1.48;;;;;;;9.75;79.39;99160.81;3607202;39;20406;-70
2023/03/14 09:28:51;;;;;;;2.30;1.23;;;;;;;9.72;78.71;99158.38;3605908;39;20080;-69
2023/03/14 09:31:17;;;;;;;3.70;1.17;;;;;;;9.70;78.16;99176.44;3604075;39;20047;-69
2023/03/14 09:33:44;;;;;;;2.92;1.50;;;;;;;9.59;79.17;99190.75;3602945;39;20051;-68
2023/03/14 09:36:10;;;;;;;2.38;1.27;;;;;;;9.22;79.86;99158.09;3602610;39;20479;-69
2023/03/14 09:38:36;;;;;;;1.65;0.73;;;;;;;9.35;80.00;99209.72;3608363;39;20108;-69
2023/03/14 09:41:20;;;;;;;3.40;0.80;;;;;;;9.25;80.60;99236.47;3610112;39;20091;-71
2023/03/14 09:43:56;;;;;;;2.08;0.70;;;;;;;8.85;79.12;99196.00;3603471;39;20058;-70
2023/03/14 09:46:22;;;;;;;1.75;0.57;;;;;;;8.96;78.64;99257.59;3605741;39;20059;-71
2023/03/14 09:48:47;;;;;;;0.98;0.57;;;;;;;8.88;78.74;99285.97;3605031;39;20147;-70
2023/03/14 09:51:20;;;;;;;1.85;0.50;;;;;;;8.79;77.74;99298.28;3607143;39;20384;-70
2023/03/14 09:53:48;;;;;;;1.00;0.35;;;;;;;8.65;76.07;99310.06;3607176;39;20048;-70
2023/03/14 09:56:24;;;;;;;2.17;0.47;;;;;;;8.25;75.83;99288.19;3610378;39;20139;-70
2023/03/14 09:59:08;;;;;;;2.72;0.40;;;;;;;8.34;75.74;99341.00;3604214;39;20359;-70
2023/03/14 10:01:35;;;;;;;1.35;0.40;;;;;;;8.29;75.26;99361.94;3612779;39;20341;-70
2023/03/14 10:04:15;;;;;;;0.40;0.30;;;;;;;8.25;75.70;99358.66;3611146;39;20054;-71
2023/03/14 10:06:41;;;;;;;3.55;0.80;;;;;;;8.33;75.65;99369.59;3611219;39;20343;-71
2023/03/14 10:09:26;;;;;;;4.13;0.80;;;;;;;8.44;76.33;99374.19;3611916;39;20059;-72
2023/03/14 10:11:59;;;;;;;3.20;0.52;;;;;;;8.58;75.33;99398.09;3607079;39;20054;-71
2023/03/14 10:14:37;;;;;;;2.10;0.82;;;;;;;8.80;74.57;99407.16;3604303;39;20050;-72
2023/03/14 10:17:13;;;;;;;3.22;0.80;;;;;;;9.03;75.56;99408.88;3600325;39;20105;-72
2023/03/14 10:19:58;;;;;;;3.60;1.05;;;;;;;9.36;73.67;99435.88;3608761;39;20042;-71
2023/03/14 10:22:29;;;;;;;2.08;0.63;;;;;;;9.34;71.31;99444.03;3611287;39;20147;-71
2023/03/14 10:25:26;;;;;;;3.47;1.00;;;;;;;9.28;70.44;99461.44;3611688;39;20059;-71
2023/03/14 10:27:51;;;;;;;2.60;0.73;;;;;;;9.26;71.60;99475.94;3613299;39;20075;-71
2023/03/14 10:30:43;;;;;;;3.75;1.00;;;;;;;9.25;70.74;99488.50;3611031;39;20266;-71
2023/03/14 10:33:23;;;;;;;5.05;1.17;;;;;;;9.16;70.90;99499.09;3608243;39;20043;-71
2023/03/14 10:36:05;;;;;;;8.25;1.40;;;;;;;9.12;71.23;99498.47;3604519;39;20051;-71
2023/03/14 10:38:34;;;;;;;3.67;0.98;;;;;;;8.92;71.09;99472.34;3607240;39;20385;-71
2023/03/14 10:41:14;;;;;;;4.95;1.20;;;;;;;9.30;69.08;99523.00;3614109;39;20062;-70
2023/03/14 10:43:41;;;;;;;5.13;1.25;;;;;;;9.34;67.43;99529.84;3610272;39;20047;-70
2023/03/14 10:46:17;;;;;;;8.15;1.55;;;;;;;9.27;69.33;99501.81;3611937;39;20073;-70
2023/03/14 10:48:45;;;;;;;5.10;1.65;;;;;;;9.39;66.27;99543.75;3612558;39;20058;-70
2023/03/14 10:51:16;;;;;;;10.10;1.90;;;;;;;9.33;66.40;99554.09;3601783;39;20116;-70
2023/03/14 10:54:02;;;;;;;7.85;1.98;;;;;;;9.30;66.45;99576.66;3613049;39;20063;-70
2023/03/14 10:56:36;;;;;;;8.48;1.92;;;;;;;9.22;68.34;99587.09;3611114;39;20094;-69
2023/03/14 10:59:07;;;;;;;8.98;1.98;;;;;;;8.98;68.77;99609.44;3613402;39;20061;-69
2023/03/14 11:02:15;;;;;;;10.77;1.88;;;;;;;8.60;70.72;99614.94;3599934;39;20051;-70
2023/03/14 11:05:15;;;;;;;7.53;1.80;;;;;;;8.42;73.19;99627.84;3611224;39;20057;-67
2023/03/14 11:07:45;;;;;;;10.95;2.17;;;;;;;8.30;73.68;99629.53;3606606;39;20187;-65
2023/03/14 11:10:24;;;;;;;7.40;1.83;;;;;;;8.34;74.86;99635.53;3611600;39;20120;-66
2023/03/14 11:13:02;;;;;;;6.60;1.92;;;;;;;8.37;74.36;99640.66;3611614;39;20357;-67
2023/03/14 11:15:49;;;;;;;12.00;2.17;;;;;;;8.45;74.38;99649.03;3609855;39;20391;-66
2023/03/14 11:19:21;;;;;;;11.05;2.17;;;;;;;8.48;73.96;99659.53;3611383;39;20062;-68
2023/03/14 11:22:13;;;;;;;11.70;2.40;;;;;;;8.60;74.68;99674.72;3568516;40;20066;-69
2023/03/14 11:24:56;;;;;;;12.88;2.40;;;;;;;8.74;74.42;99676.41;3609352;39;20051;-71
2023/03/14 11:27:47;;;;;;;8.65;1.85;;;;;;;8.81;73.89;99687.53;3611559;39;20054;-72
2023/03/14 11:30:25;;;;;;;9.43;1.63;;;;;;;8.78;72.76;99693.94;3611600;39;20047;-73
2023/03/14 11:33:08;;;;;;;11.85;2.33;;;;;;;8.73;72.22;99711.34;3611212;39;20067;-71
2023/03/14 11:35:53;;;;;;;12.90;2.30;;;;;;;8.70;72.70;99715.09;3608801;39;20046;-73
2023/03/14 11:38:41;;;;;;;11.75;2.30;;;;;;;8.65;72.90;99741.34;3610283;39;20050;-72
2023/03/14 11:41:23;;;;;;;10.02;2.00;;;;;;;8.52;73.90;99754.75;3612406;39;20421;-68
2023/03/14 11:43:55;;;;;;;10.85;2.00;;;;;;;8.21;74.66;99739.09;3610392;39;20561;-66
2023/03/14 11:46:43;;;;;;;7.60;1.60;;;;;;;8.05;73.51;99780.28;3611239;39;20063;-66
2023/03/14 11:49:41;;;;;;;6.57;1.58;;;;;;;7.92;74.83;99784.78;3608521;39;20642;-66